sensor_id;sensor_type;location;lat;lon;timestamp;temperature;humidity
55828;DHT22;41758;51.992;5.890;2024-01-30T00:01:49;12.90;60.80
55828;DHT22;41758;51.992;5.890;2024-01-30T00:04:14;12.90;60.80
55828;DHT22;41758;51.992;5.890;2024-01-30T00:06:42;12.90;60.90
55828;DHT22;41758;51.992;5.890;2024-01-30T00:09:08;12.90;61.10
55828;DHT22;41758;51.992;5.890;2024-01-30T00:11:34;12.90;61.20
55828;DHT22;41758;51.992;5.890;2024-01-30T00:14:00;12.90;61.30
55828;DHT22;41758;51.992;5.890;2024-01-30T00:16:26;13.00;61.30
55828;DHT22;41758;51.992;5.890;2024-01-30T00:18:52;13.00;61.30
55828;DHT22;41758;51.992;5.890;2024-01-30T00:21:19;13.00;61.20
55828;DHT22;41758;51.992;5.890;2024-01-30T00:23:45;13.00;61.10
55828;DHT22;41758;51.992;5.890;2024-01-30T00:26:11;13.00;61.10
55828;DHT22;41758;51.992;5.890;2024-01-30T00:28:43;13.00;61.10
55828;DHT22;41758;51.992;5.890;2024-01-30T00:31:09;12.90;61.10
55828;DHT22;41758;51.992;5.890;2024-01-30T00:33:41;12.90;61.00
55828;DHT22;41758;51.992;5.890;2024-01-30T00:36:08;12.90;61.10
55828;DHT22;41758;51.992;5.890;2024-01-30T00:38:35;12.90;61.10
55828;DHT22;41758;51.992;5.890;2024-01-30T00:41:00;12.90;61.10
55828;DHT22;41758;51.992;5.890;2024-01-30T00:43:27;12.90;61.10
55828;DHT22;41758;51.992;5.890;2024-01-30T00:45:53;12.80;61.10
55828;DHT22;41758;51.992;5.890;2024-01-30T00:48:19;12.80;61.10
55828;DHT22;41758;51.992;5.890;2024-01-30T00:50:45;12.80;61.20
55828;DHT22;41758;51.992;5.890;2024-01-30T00:53:11;12.80;61.20
55828;DHT22;41758;51.992;5.890;2024-01-30T00:55:36;12.80;61.30
55828;DHT22;41758;51.992;5.890;2024-01-30T00:58:02;12.80;61.30
55828;DHT22;41758;51.992;5.890;2024-01-30T01:00:28;12.80;61.30
55828;DHT22;41758;51.992;5.890;2024-01-30T01:02:58;12.80;61.20
55828;DHT22;41758;51.992;5.890;2024-01-30T01:05:24;12.80;61.20
55828;DHT22;41758;51.992;5.890;2024-01-30T01:07:50;12.80;61.20
55828;DHT22;41758;51.992;5.890;2024-01-30T01:10:19;12.70;61.20
55828;DHT22;41758;51.992;5.890;2024-01-30T01:12:45;12.70;61.20
55828;DHT22;41758;51.992;5.890;2024-01-30T01:15:11;12.70;61.20
55828;DHT22;41758;51.992;5.890;2024-01-30T01:17:37;12.70;61.20
55828;DHT22;41758;51.992;5.890;2024-01-30T01:20:04;12.60;61.20
55828;DHT22;41758;51.992;5.890;2024-01-30T01:22:31;12.60;61.20
55828;DHT22;41758;51.992;5.890;2024-01-30T01:24:56;12.60;61.20
55828;DHT22;41758;51.992;5.890;2024-01-30T01:27:22;12.50;61.20
55828;DHT22;41758;51.992;5.890;2024-01-30T01:29:48;12.50;61.30
55828;DHT22;41758;51.992;5.890;2024-01-30T01:32:14;12.50;61.40
55828;DHT22;41758;51.992;5.890;2024-01-30T01:34:39;12.40;61.40
55828;DHT22;41758;51.992;5.890;2024-01-30T01:37:05;12.50;61.50
55828;DHT22;41758;51.992;5.890;2024-01-30T01:39:31;12.40;61.50
55828;DHT22;41758;51.992;5.890;2024-01-30T01:41:56;12.40;61.50
55828;DHT22;41758;51.992;5.890;2024-01-30T01:44:22;12.50;61.50
55828;DHT22;41758;51.992;5.890;2024-01-30T01:46:48;12.40;61.40
55828;DHT22;41758;51.992;5.890;2024-01-30T01:49:14;12.40;61.40
55828;DHT22;41758;51.992;5.890;2024-01-30T01:51:41;12.40;61.40
55828;DHT22;41758;51.992;5.890;2024-01-30T01:54:08;12.30;61.40
55828;DHT22;41758;51.992;5.890;2024-01-30T01:56:35;12.40;61.40
55828;DHT22;41758;51.992;5.890;2024-01-30T01:59:05;12.30;61.40
55828;DHT22;41758;51.992;5.890;2024-01-30T02:01:33;12.30;61.40
55828;DHT22;41758;51.992;5.890;2024-01-30T02:03:59;12.30;61.50
55828;DHT22;41758;51.992;5.890;2024-01-30T02:06:27;12.30;61.50
55828;DHT22;41758;51.992;5.890;2024-01-30T02:08:53;12.30;61.50
55828;DHT22;41758;51.992;5.890;2024-01-30T02:11:20;12.30;61.50
55828;DHT22;41758;51.992;5.890;2024-01-30T02:13:46;12.30;61.50
55828;DHT22;41758;51.992;5.890;2024-01-30T02:16:11;12.30;61.50
55828;DHT22;41758;51.992;5.890;2024-01-30T02:18:37;12.30;61.40
55828;DHT22;41758;51.992;5.890;2024-01-30T02:21:07;12.30;61.40
55828;DHT22;41758;51.992;5.890;2024-01-30T02:23:34;12.30;61.40
55828;DHT22;41758;51.992;5.890;2024-01-30T02:26:00;12.20;61.40
55828;DHT22;41758;51.992;5.890;2024-01-30T02:28:26;12.20;61.40
55828;DHT22;41758;51.992;5.890;2024-01-30T02:30:51;12.20;61.40
55828;DHT22;41758;51.992;5.890;2024-01-30T02:33:17;12.10;61.40
55828;DHT22;41758;51.992;5.890;2024-01-30T02:35:43;12.10;61.40
55828;DHT22;41758;51.992;5.890;2024-01-30T02:38:08;12.10;61.40
55828;DHT22;41758;51.992;5.890;2024-01-30T02:40:34;12.00;61.50
55828;DHT22;41758;51.992;5.890;2024-01-30T02:43:01;12.00;61.50
55828;DHT22;41758;51.992;5.890;2024-01-30T02:45:27;11.90;61.60
55828;DHT22;41758;51.992;5.890;2024-01-30T02:47:52;12.00;61.60
55828;DHT22;41758;51.992;5.890;2024-01-30T02:50:18;11.90;61.60
55828;DHT22;41758;51.992;5.890;2024-01-30T02:52:44;12.00;61.70
55828;DHT22;41758;51.992;5.890;2024-01-30T02:55:10;11.90;61.70
55828;DHT22;41758;51.992;5.890;2024-01-30T02:57:35;11.90;61.70
55828;DHT22;41758;51.992;5.890;2024-01-30T03:00:01;11.90;61.70
55828;DHT22;41758;51.992;5.890;2024-01-30T03:02:29;11.90;61.70
55828;DHT22;41758;51.992;5.890;2024-01-30T03:04:54;11.90;61.80
55828;DHT22;41758;51.992;5.890;2024-01-30T03:07:20;11.90;61.90
55828;DHT22;41758;51.992;5.890;2024-01-30T03:09:46;11.90;61.80
55828;DHT22;41758;51.992;5.890;2024-01-30T03:12:11;11.90;61.80
55828;DHT22;41758;51.992;5.890;2024-01-30T03:14:37;11.90;61.80
55828;DHT22;41758;51.992;5.890;2024-01-30T03:17:03;11.90;61.80
55828;DHT22;41758;51.992;5.890;2024-01-30T03:19:28;11.90;61.80
55828;DHT22;41758;51.992;5.890;2024-01-30T03:21:54;11.90;61.80
55828;DHT22;41758;51.992;5.890;2024-01-30T03:24:20;11.90;61.80
55828;DHT22;41758;51.992;5.890;2024-01-30T03:26:46;11.90;61.70
55828;DHT22;41758;51.992;5.890;2024-01-30T03:29:11;11.90;61.80
55828;DHT22;41758;51.992;5.890;2024-01-30T03:31:37;11.80;61.80
55828;DHT22;41758;51.992;5.890;2024-01-30T03:34:03;11.80;61.80
55828;DHT22;41758;51.992;5.890;2024-01-30T03:36:28;11.90;61.80
55828;DHT22;41758;51.992;5.890;2024-01-30T03:38:54;11.80;61.80
55828;DHT22;41758;51.992;5.890;2024-01-30T03:41:20;11.80;61.80
55828;DHT22;41758;51.992;5.890;2024-01-30T03:43:46;11.80;61.90
55828;DHT22;41758;51.992;5.890;2024-01-30T03:46:12;11.90;61.90
55828;DHT22;41758;51.992;5.890;2024-01-30T03:48:38;11.80;61.90
55828;DHT22;41758;51.992;5.890;2024-01-30T03:51:05;11.80;61.90
55828;DHT22;41758;51.992;5.890;2024-01-30T03:53:31;11.80;61.90
55828;DHT22;41758;51.992;5.890;2024-01-30T03:55:57;11.80;61.90
55828;DHT22;41758;51.992;5.890;2024-01-30T03:58:22;11.80;61.90
55828;DHT22;41758;51.992;5.890;2024-01-30T04:00:48;11.80;61.90
55828;DHT22;41758;51.992;5.890;2024-01-30T04:03:14;11.80;62.00
55828;DHT22;41758;51.992;5.890;2024-01-30T04:05:41;11.80;62.00
55828;DHT22;41758;51.992;5.890;2024-01-30T04:08:07;11.80;62.10
55828;DHT22;41758;51.992;5.890;2024-01-30T04:10:33;11.80;62.10
55828;DHT22;41758;51.992;5.890;2024-01-30T04:12:59;11.80;62.20
55828;DHT22;41758;51.992;5.890;2024-01-30T04:15:25;11.90;62.30
55828;DHT22;41758;51.992;5.890;2024-01-30T04:17:51;11.90;62.30
55828;DHT22;41758;51.992;5.890;2024-01-30T04:20:17;12.00;62.30
55828;DHT22;41758;51.992;5.890;2024-01-30T04:22:46;12.00;62.20
55828;DHT22;41758;51.992;5.890;2024-01-30T04:25:13;12.00;62.30
55828;DHT22;41758;51.992;5.890;2024-01-30T04:27:38;12.10;62.30
55828;DHT22;41758;51.992;5.890;2024-01-30T04:30:04;12.10;62.30
55828;DHT22;41758;51.992;5.890;2024-01-30T04:32:31;12.10;62.20
55828;DHT22;41758;51.992;5.890;2024-01-30T04:34:57;12.20;62.20
55828;DHT22;41758;51.992;5.890;2024-01-30T04:37:24;12.20;62.20
55828;DHT22;41758;51.992;5.890;2024-01-30T04:39:50;12.20;62.10
55828;DHT22;41758;51.992;5.890;2024-01-30T04:42:16;12.30;62.10
55828;DHT22;41758;51.992;5.890;2024-01-30T04:44:42;12.30;62.10
55828;DHT22;41758;51.992;5.890;2024-01-30T04:47:07;12.30;62.10
55828;DHT22;41758;51.992;5.890;2024-01-30T04:49:34;12.30;62.00
55828;DHT22;41758;51.992;5.890;2024-01-30T04:52:00;12.30;62.00
55828;DHT22;41758;51.992;5.890;2024-01-30T04:54:26;12.30;62.10
55828;DHT22;41758;51.992;5.890;2024-01-30T04:56:52;12.30;62.10
55828;DHT22;41758;51.992;5.890;2024-01-30T04:59:18;12.30;62.10
55828;DHT22;41758;51.992;5.890;2024-01-30T05:01:44;12.30;62.10
55828;DHT22;41758;51.992;5.890;2024-01-30T05:04:10;12.30;62.10
55828;DHT22;41758;51.992;5.890;2024-01-30T05:06:36;12.30;62.10
55828;DHT22;41758;51.992;5.890;2024-01-30T05:09:02;12.30;62.10
55828;DHT22;41758;51.992;5.890;2024-01-30T05:11:29;12.30;62.10
55828;DHT22;41758;51.992;5.890;2024-01-30T05:13:55;12.30;62.10
55828;DHT22;41758;51.992;5.890;2024-01-30T05:16:21;12.30;62.10
55828;DHT22;41758;51.992;5.890;2024-01-30T05:18:46;12.40;62.10
55828;DHT22;41758;51.992;5.890;2024-01-30T05:21:12;12.40;62.10
55828;DHT22;41758;51.992;5.890;2024-01-30T05:23:38;12.40;62.10
55828;DHT22;41758;51.992;5.890;2024-01-30T05:26:03;12.40;62.10
55828;DHT22;41758;51.992;5.890;2024-01-30T05:28:30;12.40;62.20
55828;DHT22;41758;51.992;5.890;2024-01-30T05:30:56;12.40;62.30
55828;DHT22;41758;51.992;5.890;2024-01-30T05:33:22;12.50;62.30
55828;DHT22;41758;51.992;5.890;2024-01-30T05:35:47;12.50;62.30
55828;DHT22;41758;51.992;5.890;2024-01-30T05:38:15;12.60;62.30
55828;DHT22;41758;51.992;5.890;2024-01-30T05:40:41;12.60;62.30
55828;DHT22;41758;51.992;5.890;2024-01-30T05:43:07;12.60;62.30
55828;DHT22;41758;51.992;5.890;2024-01-30T05:45:33;12.70;62.40
55828;DHT22;41758;51.992;5.890;2024-01-30T05:48:00;12.70;62.40
55828;DHT22;41758;51.992;5.890;2024-01-30T05:50:26;12.70;62.40
55828;DHT22;41758;51.992;5.890;2024-01-30T05:52:52;12.80;62.50
55828;DHT22;41758;51.992;5.890;2024-01-30T05:55:18;12.80;62.50
55828;DHT22;41758;51.992;5.890;2024-01-30T05:57:44;12.80;62.60
55828;DHT22;41758;51.992;5.890;2024-01-30T06:00:10;12.90;62.60
55828;DHT22;41758;51.992;5.890;2024-01-30T06:02:36;12.90;62.60
55828;DHT22;41758;51.992;5.890;2024-01-30T06:05:01;13.00;62.70
55828;DHT22;41758;51.992;5.890;2024-01-30T06:07:27;13.00;62.80
55828;DHT22;41758;51.992;5.890;2024-01-30T06:09:53;13.10;62.70
55828;DHT22;41758;51.992;5.890;2024-01-30T06:12:18;13.10;62.70
55828;DHT22;41758;51.992;5.890;2024-01-30T06:14:44;13.20;62.80
55828;DHT22;41758;51.992;5.890;2024-01-30T06:17:10;13.20;62.80
55828;DHT22;41758;51.992;5.890;2024-01-30T06:19:37;13.30;62.90
55828;DHT22;41758;51.992;5.890;2024-01-30T06:22:04;13.30;62.90
55828;DHT22;41758;51.992;5.890;2024-01-30T06:24:30;13.30;62.90
55828;DHT22;41758;51.992;5.890;2024-01-30T06:26:56;13.40;62.90
55828;DHT22;41758;51.992;5.890;2024-01-30T06:29:21;13.40;62.90
55828;DHT22;41758;51.992;5.890;2024-01-30T06:31:48;13.50;62.80
55828;DHT22;41758;51.992;5.890;2024-01-30T06:34:14;13.50;62.80
55828;DHT22;41758;51.992;5.890;2024-01-30T06:36:39;13.60;62.80
55828;DHT22;41758;51.992;5.890;2024-01-30T06:39:05;13.60;62.70
55828;DHT22;41758;51.992;5.890;2024-01-30T06:41:31;13.60;62.80
55828;DHT22;41758;51.992;5.890;2024-01-30T06:43:57;13.60;62.70
55828;DHT22;41758;51.992;5.890;2024-01-30T06:46:22;13.70;62.70
55828;DHT22;41758;51.992;5.890;2024-01-30T06:48:48;13.70;62.70
55828;DHT22;41758;51.992;5.890;2024-01-30T06:51:14;13.70;62.60
55828;DHT22;41758;51.992;5.890;2024-01-30T06:53:39;13.70;62.60
55828;DHT22;41758;51.992;5.890;2024-01-30T06:56:05;13.80;62.60
55828;DHT22;41758;51.992;5.890;2024-01-30T06:58:31;13.80;62.70
55828;DHT22;41758;51.992;5.890;2024-01-30T07:00:58;13.80;62.60
55828;DHT22;41758;51.992;5.890;2024-01-30T07:03:24;13.80;62.60
55828;DHT22;41758;51.992;5.890;2024-01-30T07:05:50;13.80;62.60
55828;DHT22;41758;51.992;5.890;2024-01-30T07:08:16;13.90;62.60
55828;DHT22;41758;51.992;5.890;2024-01-30T07:10:43;13.90;62.60
55828;DHT22;41758;51.992;5.890;2024-01-30T07:13:10;13.90;62.50
55828;DHT22;41758;51.992;5.890;2024-01-30T07:15:35;13.90;62.60
55828;DHT22;41758;51.992;5.890;2024-01-30T07:18:02;13.90;62.60
55828;DHT22;41758;51.992;5.890;2024-01-30T07:20:28;14.00;62.60
55828;DHT22;41758;51.992;5.890;2024-01-30T07:22:56;14.00;62.60
55828;DHT22;41758;51.992;5.890;2024-01-30T07:25:21;14.00;62.60
55828;DHT22;41758;51.992;5.890;2024-01-30T07:27:55;14.10;62.50
55828;DHT22;41758;51.992;5.890;2024-01-30T07:30:20;14.10;62.50
55828;DHT22;41758;51.992;5.890;2024-01-30T07:32:47;14.10;62.40
55828;DHT22;41758;51.992;5.890;2024-01-30T07:35:13;14.10;62.40
55828;DHT22;41758;51.992;5.890;2024-01-30T07:37:39;14.10;62.40
55828;DHT22;41758;51.992;5.890;2024-01-30T07:40:08;14.10;62.30
55828;DHT22;41758;51.992;5.890;2024-01-30T07:42:34;14.10;62.30
55828;DHT22;41758;51.992;5.890;2024-01-30T07:45:00;14.10;62.30
55828;DHT22;41758;51.992;5.890;2024-01-30T07:47:26;14.10;62.40
55828;DHT22;41758;51.992;5.890;2024-01-30T07:49:52;14.10;62.40
55828;DHT22;41758;51.992;5.890;2024-01-30T07:52:19;14.10;62.40
55828;DHT22;41758;51.992;5.890;2024-01-30T07:54:48;14.10;62.50
55828;DHT22;41758;51.992;5.890;2024-01-30T07:57:14;14.10;62.50
55828;DHT22;41758;51.992;5.890;2024-01-30T07:59:42;14.20;62.60
55828;DHT22;41758;51.992;5.890;2024-01-30T08:02:09;14.20;62.60
55828;DHT22;41758;51.992;5.890;2024-01-30T08:04:35;14.30;62.60
55828;DHT22;41758;51.992;5.890;2024-01-30T08:07:01;14.30;62.60
55828;DHT22;41758;51.992;5.890;2024-01-30T08:09:26;14.30;62.60
55828;DHT22;41758;51.992;5.890;2024-01-30T08:11:52;14.30;62.60
55828;DHT22;41758;51.992;5.890;2024-01-30T08:14:18;14.30;62.60
55828;DHT22;41758;51.992;5.890;2024-01-30T08:16:44;14.40;62.50
55828;DHT22;41758;51.992;5.890;2024-01-30T08:19:09;14.40;62.60
55828;DHT22;41758;51.992;5.890;2024-01-30T08:21:35;14.50;62.40
55828;DHT22;41758;51.992;5.890;2024-01-30T08:24:03;14.50;62.50
55828;DHT22;41758;51.992;5.890;2024-01-30T08:26:30;14.60;62.40
55828;DHT22;41758;51.992;5.890;2024-01-30T08:28:56;14.60;62.20
55828;DHT22;41758;51.992;5.890;2024-01-30T08:31:21;14.70;62.10
55828;DHT22;41758;51.992;5.890;2024-01-30T08:33:47;14.70;62.10
55828;DHT22;41758;51.992;5.890;2024-01-30T08:36:13;14.80;62.10
55828;DHT22;41758;51.992;5.890;2024-01-30T08:38:39;14.80;62.20
55828;DHT22;41758;51.992;5.890;2024-01-30T08:41:04;14.90;61.90
55828;DHT22;41758;51.992;5.890;2024-01-30T08:43:30;14.90;61.90
55828;DHT22;41758;51.992;5.890;2024-01-30T08:45:59;15.00;61.90
55828;DHT22;41758;51.992;5.890;2024-01-30T08:48:25;15.00;61.80
55828;DHT22;41758;51.992;5.890;2024-01-30T08:50:51;15.10;61.80
55828;DHT22;41758;51.992;5.890;2024-01-30T08:53:17;15.10;61.80
55828;DHT22;41758;51.992;5.890;2024-01-30T08:55:42;15.20;61.80
55828;DHT22;41758;51.992;5.890;2024-01-30T08:58:08;15.20;61.40
55828;DHT22;41758;51.992;5.890;2024-01-30T09:00:33;15.30;61.50
55828;DHT22;41758;51.992;5.890;2024-01-30T09:02:59;15.30;61.30
55828;DHT22;41758;51.992;5.890;2024-01-30T09:05:25;15.30;61.30
55828;DHT22;41758;51.992;5.890;2024-01-30T09:07:50;15.30;61.40
55828;DHT22;41758;51.992;5.890;2024-01-30T09:10:16;15.30;61.50
55828;DHT22;41758;51.992;5.890;2024-01-30T09:12:42;15.30;61.50
55828;DHT22;41758;51.992;5.890;2024-01-30T09:15:08;15.40;61.10
55828;DHT22;41758;51.992;5.890;2024-01-30T09:17:34;15.40;61.30
55828;DHT22;41758;51.992;5.890;2024-01-30T09:20:00;15.50;61.40
55828;DHT22;41758;51.992;5.890;2024-01-30T09:22:25;15.50;60.90
55828;DHT22;41758;51.992;5.890;2024-01-30T09:24:51;15.60;60.30
55828;DHT22;41758;51.992;5.890;2024-01-30T09:27:17;15.50;60.40
55828;DHT22;41758;51.992;5.890;2024-01-30T09:29:42;15.50;60.20
55828;DHT22;41758;51.992;5.890;2024-01-30T09:32:08;15.50;60.50
55828;DHT22;41758;51.992;5.890;2024-01-30T09:34:34;15.60;60.50
55828;DHT22;41758;51.992;5.890;2024-01-30T09:37:00;15.60;60.60
55828;DHT22;41758;51.992;5.890;2024-01-30T09:39:26;15.60;60.60
55828;DHT22;41758;51.992;5.890;2024-01-30T09:42:09;15.60;60.50
55828;DHT22;41758;51.992;5.890;2024-01-30T09:44:38;15.60;60.40
55828;DHT22;41758;51.992;5.890;2024-01-30T09:47:04;15.70;60.60
55828;DHT22;41758;51.992;5.890;2024-01-30T09:49:32;15.80;60.30
55828;DHT22;41758;51.992;5.890;2024-01-30T09:51:58;15.80;60.40
55828;DHT22;41758;51.992;5.890;2024-01-30T09:54:24;15.80;60.30
55828;DHT22;41758;51.992;5.890;2024-01-30T09:56:50;15.80;60.10
55828;DHT22;41758;51.992;5.890;2024-01-30T09:59:15;15.80;59.90
55828;DHT22;41758;51.992;5.890;2024-01-30T10:01:42;15.80;60.00
55828;DHT22;41758;51.992;5.890;2024-01-30T10:04:08;15.80;60.10
55828;DHT22;41758;51.992;5.890;2024-01-30T10:06:34;15.80;60.20
55828;DHT22;41758;51.992;5.890;2024-01-30T10:08:59;15.90;60.30
55828;DHT22;41758;51.992;5.890;2024-01-30T10:11:25;16.00;60.30
55828;DHT22;41758;51.992;5.890;2024-01-30T10:13:51;16.00;60.20
55828;DHT22;41758;51.992;5.890;2024-01-30T10:16:16;16.00;60.20
55828;DHT22;41758;51.992;5.890;2024-01-30T10:18:42;16.10;59.80
55828;DHT22;41758;51.992;5.890;2024-01-30T10:21:08;16.10;59.90
55828;DHT22;41758;51.992;5.890;2024-01-30T10:23:34;16.10;59.90
55828;DHT22;41758;51.992;5.890;2024-01-30T10:26:00;16.10;59.80
55828;DHT22;41758;51.992;5.890;2024-01-30T10:28:28;16.10;59.90
55828;DHT22;41758;51.992;5.890;2024-01-30T10:30:59;16.10;60.00
55828;DHT22;41758;51.992;5.890;2024-01-30T10:33:26;16.10;59.80
55828;DHT22;41758;51.992;5.890;2024-01-30T10:36:00;16.10;59.90
55828;DHT22;41758;51.992;5.890;2024-01-30T10:38:29;16.20;59.80
55828;DHT22;41758;51.992;5.890;2024-01-30T10:40:59;16.20;59.60
55828;DHT22;41758;51.992;5.890;2024-01-30T10:43:40;16.20;59.60
55828;DHT22;41758;51.992;5.890;2024-01-30T10:46:15;16.20;59.80
55828;DHT22;41758;51.992;5.890;2024-01-30T10:48:43;16.30;59.80
55828;DHT22;41758;51.992;5.890;2024-01-30T10:51:13;16.20;60.10
55828;DHT22;41758;51.992;5.890;2024-01-30T10:53:39;16.30;60.10
55828;DHT22;41758;51.992;5.890;2024-01-30T10:56:06;16.30;60.20
55828;DHT22;41758;51.992;5.890;2024-01-30T10:58:32;16.40;60.10
55828;DHT22;41758;51.992;5.890;2024-01-30T11:00:58;16.40;60.30
55828;DHT22;41758;51.992;5.890;2024-01-30T11:03:24;16.50;60.20
55828;DHT22;41758;51.992;5.890;2024-01-30T11:05:50;16.60;60.20
55828;DHT22;41758;51.992;5.890;2024-01-30T11:08:25;16.60;59.90
55828;DHT22;41758;51.992;5.890;2024-01-30T11:10:57;16.70;59.50
55828;DHT22;41758;51.992;5.890;2024-01-30T11:13:30;16.70;59.50
55828;DHT22;41758;51.992;5.890;2024-01-30T11:16:01;16.70;59.30
55828;DHT22;41758;51.992;5.890;2024-01-30T11:18:31;16.80;59.40
55828;DHT22;41758;51.992;5.890;2024-01-30T11:20:58;16.90;59.70
55828;DHT22;41758;51.992;5.890;2024-01-30T11:23:28;17.00;59.50
55828;DHT22;41758;51.992;5.890;2024-01-30T11:25:57;17.10;59.10
55828;DHT22;41758;51.992;5.890;2024-01-30T11:28:23;17.10;59.30
55828;DHT22;41758;51.992;5.890;2024-01-30T11:30:48;17.20;59.10
55828;DHT22;41758;51.992;5.890;2024-01-30T11:33:30;17.20;58.50
55828;DHT22;41758;51.992;5.890;2024-01-30T11:35:58;17.20;58.40
55828;DHT22;41758;51.992;5.890;2024-01-30T11:38:26;17.20;58.70
55828;DHT22;41758;51.992;5.890;2024-01-30T11:40:54;17.10;58.60
55828;DHT22;41758;51.992;5.890;2024-01-30T11:43:20;17.20;58.60
55828;DHT22;41758;51.992;5.890;2024-01-30T11:45:45;17.20;58.40
55828;DHT22;41758;51.992;5.890;2024-01-30T11:48:12;17.20;58.60
55828;DHT22;41758;51.992;5.890;2024-01-30T11:50:39;17.30;58.70
55828;DHT22;41758;51.992;5.890;2024-01-30T11:53:05;17.30;58.00
55828;DHT22;41758;51.992;5.890;2024-01-30T11:55:31;17.30;58.00
55828;DHT22;41758;51.992;5.890;2024-01-30T11:57:58;17.40;58.20
55828;DHT22;41758;51.992;5.890;2024-01-30T12:00:24;17.40;57.90
55828;DHT22;41758;51.992;5.890;2024-01-30T12:02:54;17.50;57.70
55828;DHT22;41758;51.992;5.890;2024-01-30T12:05:24;17.60;57.40
55828;DHT22;41758;51.992;5.890;2024-01-30T12:07:49;17.50;57.30
55828;DHT22;41758;51.992;5.890;2024-01-30T12:10:15;17.60;57.20
55828;DHT22;41758;51.992;5.890;2024-01-30T12:12:44;17.50;57.20
55828;DHT22;41758;51.992;5.890;2024-01-30T12:15:11;17.50;56.40
55828;DHT22;41758;51.992;5.890;2024-01-30T12:17:36;17.50;56.90
55828;DHT22;41758;51.992;5.890;2024-01-30T12:20:15;17.50;57.10
55828;DHT22;41758;51.992;5.890;2024-01-30T12:22:43;17.60;56.60
55828;DHT22;41758;51.992;5.890;2024-01-30T12:25:16;17.60;57.00
55828;DHT22;41758;51.992;5.890;2024-01-30T12:27:44;17.80;57.50
55828;DHT22;41758;51.992;5.890;2024-01-30T12:30:11;18.00;57.50
55828;DHT22;41758;51.992;5.890;2024-01-30T12:32:40;18.20;56.60
55828;DHT22;41758;51.992;5.890;2024-01-30T12:35:13;18.30;56.00
55828;DHT22;41758;51.992;5.890;2024-01-30T12:37:39;18.40;54.40
55828;DHT22;41758;51.992;5.890;2024-01-30T12:40:09;18.40;54.40
55828;DHT22;41758;51.992;5.890;2024-01-30T12:42:35;18.30;53.70
55828;DHT22;41758;51.992;5.890;2024-01-30T12:45:05;18.20;53.50
55828;DHT22;41758;51.992;5.890;2024-01-30T12:47:31;18.10;53.60
55828;DHT22;41758;51.992;5.890;2024-01-30T12:49:57;18.00;53.30
55828;DHT22;41758;51.992;5.890;2024-01-30T12:52:23;17.90;53.60
55828;DHT22;41758;51.992;5.890;2024-01-30T12:54:50;17.80;53.00
55828;DHT22;41758;51.992;5.890;2024-01-30T12:57:16;17.70;53.40
55828;DHT22;41758;51.992;5.890;2024-01-30T12:59:42;17.60;53.50
55828;DHT22;41758;51.992;5.890;2024-01-30T13:02:09;17.50;53.60
55828;DHT22;41758;51.992;5.890;2024-01-30T13:04:34;17.50;52.70
55828;DHT22;41758;51.992;5.890;2024-01-30T13:07:00;17.40;52.80
55828;DHT22;41758;51.992;5.890;2024-01-30T13:09:27;17.30;53.10
55828;DHT22;41758;51.992;5.890;2024-01-30T13:11:52;17.30;53.40
55828;DHT22;41758;51.992;5.890;2024-01-30T13:14:19;17.20;53.50
55828;DHT22;41758;51.992;5.890;2024-01-30T13:16:45;17.30;52.70
55828;DHT22;41758;51.992;5.890;2024-01-30T13:19:10;17.10;53.20
55828;DHT22;41758;51.992;5.890;2024-01-30T13:21:36;17.20;53.90
55828;DHT22;41758;51.992;5.890;2024-01-30T13:24:01;17.20;54.00
55828;DHT22;41758;51.992;5.890;2024-01-30T13:26:27;17.20;53.00
55828;DHT22;41758;51.992;5.890;2024-01-30T13:28:54;17.20;53.40
55828;DHT22;41758;51.992;5.890;2024-01-30T13:31:20;17.20;53.20
55828;DHT22;41758;51.992;5.890;2024-01-30T13:33:46;17.20;53.30
55828;DHT22;41758;51.992;5.890;2024-01-30T13:36:12;17.20;53.10
55828;DHT22;41758;51.992;5.890;2024-01-30T13:38:38;17.20;52.70
55828;DHT22;41758;51.992;5.890;2024-01-30T13:41:04;17.20;51.00
55828;DHT22;41758;51.992;5.890;2024-01-30T13:43:30;17.00;51.30
55828;DHT22;41758;51.992;5.890;2024-01-30T13:45:56;16.90;51.10
55828;DHT22;41758;51.992;5.890;2024-01-30T13:48:22;16.70;51.10
55828;DHT22;41758;51.992;5.890;2024-01-30T13:50:47;16.60;51.70
55828;DHT22;41758;51.992;5.890;2024-01-30T13:53:13;16.40;51.80
55828;DHT22;41758;51.992;5.890;2024-01-30T13:55:39;16.30;52.00
55828;DHT22;41758;51.992;5.890;2024-01-30T13:58:05;16.20;52.30
55828;DHT22;41758;51.992;5.890;2024-01-30T14:00:31;16.10;52.70
55828;DHT22;41758;51.992;5.890;2024-01-30T14:02:57;16.00;52.90
55828;DHT22;41758;51.992;5.890;2024-01-30T14:05:24;15.90;53.00
55828;DHT22;41758;51.992;5.890;2024-01-30T14:07:51;15.80;53.40
55828;DHT22;41758;51.992;5.890;2024-01-30T14:10:17;15.70;53.80
55828;DHT22;41758;51.992;5.890;2024-01-30T14:12:43;15.60;54.10
55828;DHT22;41758;51.992;5.890;2024-01-30T14:15:09;15.50;54.40
55828;DHT22;41758;51.992;5.890;2024-01-30T14:17:36;15.40;54.60
55828;DHT22;41758;51.992;5.890;2024-01-30T14:20:02;15.40;54.80
55828;DHT22;41758;51.992;5.890;2024-01-30T14:22:30;15.30;54.90
55828;DHT22;41758;51.992;5.890;2024-01-30T14:24:56;15.30;55.00
55828;DHT22;41758;51.992;5.890;2024-01-30T14:27:22;15.30;55.30
55828;DHT22;41758;51.992;5.890;2024-01-30T14:29:48;15.20;55.40
55828;DHT22;41758;51.992;5.890;2024-01-30T14:32:14;15.20;55.60
55828;DHT22;41758;51.992;5.890;2024-01-30T14:34:39;15.20;55.60
55828;DHT22;41758;51.992;5.890;2024-01-30T14:37:05;15.20;55.70
55828;DHT22;41758;51.992;5.890;2024-01-30T14:39:31;15.30;55.70
55828;DHT22;41758;51.992;5.890;2024-01-30T14:41:57;15.20;55.70
55828;DHT22;41758;51.992;5.890;2024-01-30T14:44:23;15.20;56.00
55828;DHT22;41758;51.992;5.890;2024-01-30T14:46:49;15.20;56.00
55828;DHT22;41758;51.992;5.890;2024-01-30T14:49:15;15.20;56.00
55828;DHT22;41758;51.992;5.890;2024-01-30T14:51:41;15.20;56.00
55828;DHT22;41758;51.992;5.890;2024-01-30T14:54:07;15.20;56.00
55828;DHT22;41758;51.992;5.890;2024-01-30T14:56:33;15.20;56.10
55828;DHT22;41758;51.992;5.890;2024-01-30T14:58:59;15.10;55.90
55828;DHT22;41758;51.992;5.890;2024-01-30T15:01:25;15.10;55.80
55828;DHT22;41758;51.992;5.890;2024-01-30T15:03:50;15.00;56.10
55828;DHT22;41758;51.992;5.890;2024-01-30T15:06:21;14.90;56.40
55828;DHT22;41758;51.992;5.890;2024-01-30T15:08:50;14.80;56.60
55828;DHT22;41758;51.992;5.890;2024-01-30T15:11:16;14.80;57.10
55828;DHT22;41758;51.992;5.890;2024-01-30T15:13:41;14.70;57.30
55828;DHT22;41758;51.992;5.890;2024-01-30T15:16:07;14.70;57.50
55828;DHT22;41758;51.992;5.890;2024-01-30T15:18:33;14.60;57.60
55828;DHT22;41758;51.992;5.890;2024-01-30T15:20:59;14.60;57.70
55828;DHT22;41758;51.992;5.890;2024-01-30T15:23:25;14.60;57.80
55828;DHT22;41758;51.992;5.890;2024-01-30T15:25:50;14.60;57.80